createdAt,value
2022-09-06T00:01:10.817Z,97.90
2022-09-06T00:03:38.518Z,98.79
2022-09-06T00:06:10.417Z,99.15
2022-09-06T00:08:38.366Z,98.55
2022-09-06T00:11:07.629Z,98.60
2022-09-06T00:13:35.784Z,97.79
2022-09-06T00:16:08.310Z,98.78
2022-09-06T00:18:36.375Z,98.49
2022-09-06T00:21:04.188Z,98.09
2022-09-06T00:23:32.034Z,98.29
2022-09-06T00:26:04.070Z,98.63
2022-09-06T00:28:33.231Z,99.16
2022-09-06T00:31:09.109Z,100.00
2022-09-06T00:33:36.786Z,100.00
2022-09-06T00:36:04.874Z,100.00
2022-09-06T00:38:32.529Z,100.00
2022-09-06T00:41:00.225Z,100.00
2022-09-06T00:43:28.243Z,100.00
2022-09-06T00:45:57.431Z,100.00
2022-09-06T00:48:25.541Z,100.00
2022-09-06T00:50:56.195Z,100.00
2022-09-06T00:53:25.445Z,100.00
2022-09-06T00:55:53.682Z,100.00
2022-09-06T00:58:21.762Z,100.00
2022-09-06T01:00:49.427Z,100.00
2022-09-06T01:03:19.409Z,100.00
2022-09-06T01:05:56.106Z,100.00
2022-09-06T01:08:31.820Z,100.00
2022-09-06T01:11:25.220Z,100.00
2022-09-06T01:14:04.730Z,100.00
2022-09-06T01:16:40.244Z,100.00
2022-09-06T01:19:29.983Z,100.00
2022-09-06T01:22:10.202Z,100.00
2022-09-06T01:24:59.863Z,100.00
2022-09-06T01:27:54.900Z,100.00
2022-09-06T01:30:23.031Z,100.00
2022-09-06T01:32:57.474Z,100.00
2022-09-06T01:35:32.819Z,100.00
2022-09-06T01:38:01.121Z,100.00
2022-09-06T01:40:29.131Z,100.00
2022-09-06T01:42:59.309Z,100.00
2022-09-06T01:45:32.535Z,100.00
2022-09-06T01:48:10.424Z,100.00
2022-09-06T01:50:51.397Z,100.00
2022-09-06T01:53:34.084Z,100.00
2022-09-06T01:56:08.527Z,100.00
2022-09-06T01:59:12.745Z,100.00
2022-09-06T02:01:48.654Z,100.00
2022-09-06T02:04:21.757Z,100.00
2022-09-06T02:06:54.814Z,100.00
2022-09-06T02:09:26.717Z,100.00
2022-09-06T02:11:58.883Z,100.00
2022-09-06T02:14:34.385Z,100.00
2022-09-06T02:17:03.466Z,100.00
2022-09-06T02:19:37.545Z,100.00
2022-09-06T02:22:08.849Z,100.00
2022-09-06T02:24:40.659Z,100.00
2022-09-06T02:27:08.936Z,100.00
2022-09-06T02:29:37.903Z,100.00
2022-09-06T02:32:14.368Z,100.00
2022-09-06T02:34:43.152Z,100.00
2022-09-06T02:37:12.997Z,100.00
2022-09-06T02:39:40.949Z,100.00
2022-09-06T02:42:10.258Z,100.00
2022-09-06T02:44:39.172Z,100.00
2022-09-06T02:47:06.885Z,100.00
2022-09-06T02:49:34.526Z,100.00
2022-09-06T02:52:02.062Z,100.00
2022-09-06T02:54:29.646Z,100.00
2022-09-06T02:56:57.457Z,100.00
2022-09-06T02:59:25.019Z,100.00
2022-09-06T03:01:53.935Z,100.00
2022-09-06T03:04:21.457Z,100.00
2022-09-06T03:06:49.007Z,100.00
2022-09-06T03:09:16.550Z,100.00
2022-09-06T03:11:44.370Z,100.00
2022-09-06T03:14:11.881Z,100.00
2022-09-06T03:16:39.486Z,100.00
2022-09-06T03:19:08.422Z,100.00
2022-09-06T03:21:35.963Z,100.00
2022-09-06T03:24:04.044Z,100.00
2022-09-06T03:26:31.589Z,100.00
2022-09-06T03:28:59.118Z,100.00
2022-09-06T03:31:26.631Z,100.00
2022-09-06T03:33:54.140Z,100.00
2022-09-06T03:36:23.021Z,100.00
2022-09-06T03:38:51.107Z,100.00
2022-09-06T03:41:18.641Z,100.00
2022-09-06T03:43:46.211Z,100.00
2022-09-06T03:46:13.818Z,100.00
2022-09-06T03:48:41.421Z,100.00
2022-09-06T03:51:08.968Z,100.00
2022-09-06T03:53:37.977Z,100.00
2022-09-06T03:56:05.716Z,100.00
2022-09-06T03:58:33.653Z,100.00
2022-09-06T04:01:03.544Z,100.00
2022-09-06T04:03:31.335Z,100.00
2022-09-06T04:05:58.971Z,100.00
2022-09-06T04:08:27.059Z,100.00
2022-09-06T04:10:56.831Z,100.00
2022-09-06T04:13:25.837Z,100.00
2022-09-06T04:15:53.446Z,100.00
2022-09-06T04:18:21.774Z,100.00
2022-09-06T04:20:50.563Z,100.00
2022-09-06T04:23:18.728Z,100.00
2022-09-06T04:25:48.411Z,100.00
2022-09-06T04:28:18.649Z,100.00
2022-09-06T04:30:46.720Z,100.00
2022-09-06T04:33:14.254Z,100.00
2022-09-06T04:35:41.781Z,100.00
2022-09-06T04:38:09.281Z,100.00
2022-09-06T04:40:36.844Z,100.00
2022-09-06T04:43:04.348Z,100.00
2022-09-06T04:45:33.260Z,100.00
2022-09-06T04:48:00.854Z,100.00
2022-09-06T04:50:28.415Z,100.00
2022-09-06T04:52:56.095Z,100.00
2022-09-06T04:55:23.613Z,100.00
2022-09-06T04:57:51.444Z,100.00
2022-09-06T05:00:19.232Z,100.00
2022-09-06T05:02:48.489Z,100.00
2022-09-06T05:05:16.318Z,100.00
2022-09-06T05:07:43.878Z,100.00
2022-09-06T05:10:11.611Z,100.00
2022-09-06T05:12:44.039Z,100.00
2022-09-06T05:15:12.264Z,100.00
2022-09-06T05:17:39.979Z,100.00
2022-09-06T05:20:10.922Z,100.00
2022-09-06T05:22:38.576Z,100.00
2022-09-06T05:25:06.939Z,100.00
2022-09-06T05:27:34.457Z,100.00
2022-09-06T05:30:03.378Z,100.00
2022-09-06T05:32:30.931Z,100.00
2022-09-06T05:34:58.567Z,100.00
2022-09-06T05:37:27.502Z,100.00
2022-09-06T05:39:55.118Z,100.00
2022-09-06T05:42:22.676Z,100.00
2022-09-06T05:44:50.474Z,100.00
2022-09-06T05:47:18.442Z,100.00
2022-09-06T05:49:46.197Z,100.00
2022-09-06T05:52:13.725Z,100.00
2022-09-06T05:54:42.605Z,100.00
2022-09-06T05:57:10.134Z,100.00
2022-09-06T05:59:37.751Z,100.00
2022-09-06T06:02:07.485Z,100.00
2022-09-06T06:04:35.947Z,100.00
2022-09-06T06:07:03.642Z,100.00
2022-09-06T06:09:31.250Z,100.00
2022-09-06T06:12:00.151Z,100.00
2022-09-06T06:14:27.695Z,100.00
2022-09-06T06:16:55.273Z,100.00
2022-09-06T06:19:22.894Z,100.00
2022-09-06T06:21:50.467Z,100.00
2022-09-06T06:24:18.087Z,100.00
2022-09-06T06:26:45.793Z,100.00
2022-09-06T06:29:14.856Z,100.00
2022-09-06T06:31:42.524Z,100.00
2022-09-06T06:34:10.095Z,100.00
2022-09-06T06:36:38.222Z,100.00
2022-09-06T06:39:08.334Z,100.00
2022-09-06T06:41:35.926Z,98.98
2022-09-06T06:44:05.852Z,100.00
2022-09-06T06:46:36.733Z,98.84
2022-09-06T06:49:04.754Z,98.54
2022-09-06T06:51:33.787Z,97.75
2022-09-06T06:54:01.327Z,97.76
2022-09-06T06:56:31.027Z,96.76
2022-09-06T06:59:00.326Z,95.06
2022-09-06T07:01:30.170Z,92.93
2022-09-06T07:03:59.677Z,92.48
2022-09-06T07:09:16.736Z,91.17
2022-09-06T07:11:44.276Z,91.60
2022-09-06T07:14:12.023Z,92.79
2022-09-06T07:16:39.776Z,93.92
2022-09-06T07:21:59.325Z,96.34
2022-09-06T07:24:27.934Z,96.61
2022-09-06T07:29:43.081Z,93.27
2022-09-06T07:32:10.807Z,92.71
2022-09-06T07:34:39.950Z,92.16
2022-09-06T07:37:07.515Z,90.98
2022-09-06T07:39:36.922Z,90.78
2022-09-06T07:42:04.962Z,87.84
2022-09-06T07:44:32.555Z,90.62
2022-09-06T07:55:27.053Z,91.56
2022-09-06T07:57:54.602Z,90.92
2022-09-06T08:00:22.274Z,90.63
2022-09-06T08:02:49.863Z,89.83
2022-09-06T08:10:54.106Z,87.29
2022-09-06T08:13:21.686Z,86.62
2022-09-06T08:15:49.342Z,87.00
2022-09-06T08:18:16.884Z,85.67
2022-09-06T08:20:45.754Z,85.94
2022-09-06T08:23:13.708Z,85.50
2022-09-06T08:25:41.298Z,83.95
2022-09-06T08:28:08.856Z,85.28
2022-09-06T08:30:36.528Z,86.25
2022-09-06T08:33:04.079Z,86.05
2022-09-06T08:35:31.689Z,85.36
2022-09-06T08:38:00.614Z,85.64
2022-09-06T08:40:28.213Z,84.33
2022-09-06T08:42:55.848Z,85.42
2022-09-06T08:45:24.752Z,84.97
2022-09-06T08:47:52.559Z,82.97
2022-09-06T08:50:21.873Z,81.33
2022-09-06T08:53:16.167Z,81.67
2022-09-06T08:55:54.116Z,79.52
2022-09-06T08:58:38.194Z,78.56
2022-09-06T09:01:09.028Z,77.71
2022-09-06T09:03:45.181Z,75.57
2022-09-06T09:06:12.851Z,73.95
2022-09-06T09:08:47.870Z,74.56
2022-09-06T09:11:19.821Z,73.50
2022-09-06T09:13:55.828Z,72.65
2022-09-06T09:16:24.260Z,70.61
2022-09-06T09:18:53.354Z,70.38
2022-09-06T09:21:29.562Z,72.00
2022-09-06T09:23:59.797Z,70.00
2022-09-06T09:26:34.241Z,71.77
2022-09-06T09:29:08.124Z,69.54
2022-09-06T09:31:37.789Z,70.13
2022-09-06T09:34:05.622Z,70.73
2022-09-06T09:36:33.579Z,68.95
2022-09-06T09:39:01.349Z,69.24
2022-09-06T09:41:33.434Z,71.08
2022-09-06T09:44:05.109Z,71.40
2022-09-06T09:46:34.266Z,72.57
2022-09-06T09:49:05.189Z,72.45
2022-09-06T09:51:34.265Z,72.46
2022-09-06T09:54:03.720Z,72.24
2022-09-06T09:56:39.032Z,71.45
2022-09-06T09:59:17.562Z,70.11
2022-09-06T10:01:45.156Z,70.88
2022-09-06T10:07:14.241Z,70.12
2022-09-06T10:09:47.123Z,69.67
2022-09-06T10:12:19.893Z,68.33
2022-09-06T10:14:50.135Z,69.50
2022-09-06T10:17:23.240Z,69.39
2022-09-06T10:19:50.825Z,68.82
2022-09-06T10:22:27.128Z,66.68
2022-09-06T10:25:25.898Z,66.09
2022-09-06T10:28:11.881Z,62.02
2022-09-06T10:30:46.914Z,60.27
2022-09-06T10:33:27.086Z,59.56
2022-09-06T10:35:58.024Z,57.51
2022-09-06T10:38:38.536Z,57.05
2022-09-06T10:41:25.079Z,56.87
2022-09-06T10:44:01.939Z,57.66
2022-09-06T10:46:34.717Z,56.82
2022-09-06T10:49:02.399Z,55.87
2022-09-06T10:51:39.287Z,55.65
2022-09-06T10:54:10.972Z,53.54
2022-09-06T10:56:44.954Z,53.76
2022-09-06T10:59:38.079Z,57.07
2022-09-06T11:02:17.657Z,56.44
2022-09-06T11:07:41.229Z,56.45
2022-09-06T11:10:15.716Z,58.20
2022-09-06T11:12:48.679Z,56.57
2022-09-06T11:15:20.243Z,58.71
2022-09-06T11:17:52.878Z,58.40
2022-09-06T11:20:29.820Z,56.80
2022-09-06T11:23:31.394Z,57.22
2022-09-06T11:26:11.704Z,57.14
2022-09-06T11:28:44.825Z,57.73
2022-09-06T11:34:22.472Z,58.91
2022-09-06T11:36:52.730Z,56.12
2022-09-06T11:42:40.895Z,55.85
2022-09-06T11:45:21.548Z,54.77
2022-09-06T11:47:52.070Z,56.04
2022-09-06T11:50:27.984Z,52.75
2022-09-06T11:53:03.030Z,55.20
2022-09-06T11:55:38.707Z,53.80
2022-09-06T11:58:12.229Z,53.75
2022-09-06T12:00:39.991Z,53.66
2022-09-06T12:06:19.807Z,51.95
2022-09-06T12:08:48.208Z,54.11
2022-09-06T12:11:30.787Z,53.03
2022-09-06T12:14:03.145Z,52.90
2022-09-06T12:17:08.911Z,51.06
2022-09-06T12:19:44.979Z,53.47
2022-09-06T12:22:53.447Z,49.89
2022-09-06T12:25:52.843Z,51.63
2022-09-06T12:28:28.231Z,49.17
2022-09-06T12:30:56.146Z,48.67
2022-09-06T12:33:28.105Z,47.95
2022-09-06T12:36:13.842Z,50.47
2022-09-06T12:38:41.614Z,49.59
2022-09-06T12:41:09.388Z,46.84
2022-09-06T12:43:40.276Z,49.39
2022-09-06T12:46:08.620Z,48.43
2022-09-06T12:48:41.208Z,50.72
2022-09-06T12:51:16.030Z,43.80
2022-09-06T12:53:51.422Z,43.09
2022-09-06T12:56:21.639Z,41.85
2022-09-06T12:58:49.232Z,38.99
2022-09-06T13:01:23.646Z,39.96
2022-09-06T13:04:00.187Z,38.99
2022-09-06T13:06:31.665Z,38.10
2022-09-06T13:09:00.035Z,39.65
2022-09-06T13:11:31.468Z,37.61
2022-09-06T13:13:59.434Z,35.85
2022-09-06T13:16:30.866Z,36.28
2022-09-06T13:19:12.420Z,35.10
2022-09-06T13:21:42.822Z,40.27
2022-09-06T13:24:22.424Z,35.64
2022-09-06T13:26:50.751Z,34.79
2022-09-06T13:29:27.143Z,33.80
2022-09-06T13:31:59.266Z,34.90
2022-09-06T13:34:29.070Z,30.11
2022-09-06T13:37:09.605Z,32.22
2022-09-06T13:39:39.249Z,31.72
2022-09-06T13:42:08.634Z,36.28
2022-09-06T13:44:37.700Z,35.24
2022-09-06T13:47:05.800Z,32.38
2022-09-06T13:49:34.117Z,32.37
2022-09-06T13:52:04.910Z,31.08
2022-09-06T13:54:33.713Z,35.79
2022-09-06T13:57:01.866Z,35.45
2022-09-06T13:59:30.226Z,34.89
2022-09-06T14:02:02.573Z,34.66
2022-09-06T14:04:32.339Z,32.44
2022-09-06T14:07:00.446Z,31.84
2022-09-06T14:09:29.757Z,34.82
2022-09-06T14:11:57.510Z,38.24
2022-09-06T14:14:25.236Z,39.12
2022-09-06T14:16:53.950Z,40.61
2022-09-06T14:19:21.474Z,41.26
2022-09-06T14:21:48.838Z,41.78
2022-09-06T14:24:16.194Z,40.82
2022-09-06T14:26:44.971Z,37.60
2022-09-06T14:29:12.551Z,36.76
2022-09-06T14:31:40.067Z,40.42
2022-09-06T14:34:07.608Z,37.93
2022-09-06T14:36:35.069Z,38.25
2022-09-06T14:39:03.145Z,37.25
2022-09-06T14:41:31.111Z,37.33
2022-09-06T14:44:00.461Z,40.11
2022-09-06T14:46:29.901Z,42.46
2022-09-06T14:48:58.822Z,43.60
2022-09-06T14:51:26.658Z,39.75
2022-09-06T14:53:56.635Z,37.29
2022-09-06T14:56:25.919Z,35.55
2022-09-06T14:58:54.659Z,36.36
2022-09-06T15:01:25.526Z,37.02
2022-09-06T15:03:55.705Z,35.09
2022-09-06T15:06:25.307Z,35.44
2022-09-06T15:08:58.413Z,36.30
2022-09-06T15:11:32.225Z,36.14
2022-09-06T15:13:59.916Z,34.39
2022-09-06T15:16:29.860Z,36.82
2022-09-06T15:18:57.866Z,35.15
2022-09-06T15:21:25.774Z,35.94
2022-09-06T15:23:54.545Z,37.11
2022-09-06T15:26:22.820Z,39.00
2022-09-06T15:28:50.575Z,38.80
2022-09-06T15:31:19.434Z,40.64
2022-09-06T15:33:48.893Z,42.47
2022-09-06T15:36:17.298Z,43.26
2022-09-06T15:38:47.383Z,42.33
2022-09-06T15:41:17.484Z,44.14
2022-09-06T15:43:47.305Z,43.94
2022-09-06T15:46:15.598Z,42.71
2022-09-06T15:48:44.870Z,43.21
2022-09-06T15:51:16.070Z,38.79
2022-09-06T15:53:43.785Z,39.43
2022-09-06T15:56:13.590Z,39.81
2022-09-06T15:58:41.340Z,41.15
2022-09-06T16:01:10.235Z,41.86
2022-09-06T16:03:39.377Z,41.25
2022-09-06T16:08:58.356Z,43.66
2022-09-06T16:11:26.079Z,44.79
2022-09-06T16:13:54.121Z,45.93
2022-09-06T16:16:22.676Z,45.77
2022-09-06T16:18:52.069Z,45.96
2022-09-06T16:21:23.826Z,44.95
2022-09-06T16:23:54.872Z,46.66
2022-09-06T16:26:23.598Z,47.88
2022-09-06T16:28:52.899Z,47.13
2022-09-06T16:31:22.134Z,46.63
2022-09-06T16:33:50.305Z,46.71
2022-09-06T16:36:19.489Z,46.17
2022-09-06T16:38:48.003Z,47.62
2022-09-06T16:41:19.174Z,48.42
2022-09-06T16:43:47.854Z,48.76
2022-09-06T16:46:15.771Z,48.31
2022-09-06T16:48:43.335Z,49.85
2022-09-06T16:51:13.939Z,49.83
2022-09-06T16:53:43.451Z,50.02
2022-09-06T16:56:12.442Z,50.78
2022-09-06T16:58:41.793Z,50.98
2022-09-06T17:01:09.958Z,51.39
2022-09-06T17:03:38.389Z,52.00
2022-09-06T17:06:07.113Z,51.98
2022-09-06T17:08:36.271Z,52.88
2022-09-06T17:11:04.361Z,53.76
2022-09-06T17:13:33.060Z,54.05
2022-09-06T17:16:22.322Z,55.09
2022-09-06T17:18:52.542Z,55.95
2022-09-06T17:21:21.217Z,57.13
2022-09-06T17:23:49.463Z,57.73
2022-09-06T17:26:17.289Z,57.03
2022-09-06T17:28:44.829Z,57.15
2022-09-06T17:31:13.864Z,57.18
2022-09-06T17:33:41.654Z,57.42
2022-09-06T17:36:11.587Z,58.04
2022-09-06T17:38:39.576Z,58.48
2022-09-06T17:41:07.773Z,58.91
2022-09-06T17:43:36.564Z,58.85
2022-09-06T17:46:04.490Z,59.21
2022-09-06T17:48:33.484Z,59.20
2022-09-06T17:51:06.855Z,60.94
2022-09-06T17:53:34.481Z,60.62
2022-09-06T17:56:04.971Z,60.72
2022-09-06T17:58:32.956Z,60.88
2022-09-06T18:01:03.246Z,61.40
2022-09-06T18:03:31.866Z,61.40
2022-09-06T18:06:05.397Z,60.28
2022-09-06T18:08:32.986Z,60.99
2022-09-06T18:11:00.772Z,61.48
2022-09-06T18:13:28.369Z,61.85
2022-09-06T18:15:55.958Z,62.45
2022-09-06T18:18:23.557Z,62.61
2022-09-06T18:20:51.814Z,62.64
2022-09-06T18:23:20.659Z,62.56
2022-09-06T18:25:56.845Z,63.22
2022-09-06T18:28:25.241Z,63.08
2022-09-06T18:30:53.973Z,63.07
2022-09-06T18:33:23.667Z,63.32
2022-09-06T18:35:51.853Z,63.27
2022-09-06T18:38:20.663Z,62.85
2022-09-06T18:40:52.197Z,62.67
2022-09-06T18:43:20.215Z,62.58
2022-09-06T18:45:47.794Z,63.15
2022-09-06T18:48:15.843Z,62.93
2022-09-06T18:50:43.467Z,62.41
2022-09-06T18:53:11.515Z,64.30
2022-09-06T18:55:42.602Z,66.14
2022-09-06T18:58:10.810Z,67.14
2022-09-06T19:00:38.770Z,66.52
2022-09-06T19:03:06.817Z,66.60
2022-09-06T19:05:35.590Z,66.74
2022-09-06T19:08:03.785Z,66.65
2022-09-06T19:10:31.760Z,66.72
2022-09-06T19:13:00.682Z,67.69
2022-09-06T19:15:28.454Z,66.77
2022-09-06T19:17:56.958Z,67.20
2022-09-06T19:20:24.519Z,66.56
2022-09-06T19:22:52.238Z,66.16
2022-09-06T19:25:20.191Z,66.55
2022-09-06T19:27:48.934Z,66.88
2022-09-06T19:30:19.757Z,67.33
2022-09-06T19:32:47.600Z,67.73
2022-09-06T19:35:15.310Z,68.67
2022-09-06T19:37:43.095Z,68.34
2022-09-06T19:40:11.541Z,68.98
2022-09-06T19:42:39.373Z,69.14
2022-09-06T19:45:09.615Z,69.95
2022-09-06T19:47:38.619Z,69.84
2022-09-06T19:50:08.031Z,69.01
2022-09-06T19:52:35.652Z,70.07
2022-09-06T19:55:03.336Z,70.13
2022-09-06T19:57:30.966Z,70.10
2022-09-06T19:59:58.517Z,71.35
2022-09-06T20:02:26.271Z,71.98
2022-09-06T20:04:55.409Z,73.22
2022-09-06T20:07:22.938Z,71.56
2022-09-06T20:09:52.524Z,72.04
2022-09-06T20:12:20.607Z,73.29
2022-09-06T20:14:48.168Z,73.85
2022-09-06T20:17:33.223Z,72.92
2022-09-06T20:20:04.039Z,73.31
2022-09-06T20:22:31.974Z,73.22
2022-09-06T20:24:59.727Z,73.47
2022-09-06T20:27:27.428Z,72.38
2022-09-06T20:29:55.007Z,72.55
2022-09-06T20:32:22.606Z,73.31
2022-09-06T20:34:50.206Z,74.98
2022-09-06T20:37:19.276Z,75.44
2022-09-06T20:39:46.892Z,77.50
2022-09-06T20:42:14.472Z,94.56
2022-09-06T20:44:42.028Z,100.00
2022-09-06T20:47:09.932Z,100.00
2022-09-06T20:49:37.671Z,100.00
2022-09-06T20:52:05.370Z,100.00
2022-09-06T20:54:34.379Z,100.00
2022-09-06T20:57:01.989Z,100.00
2022-09-06T20:59:29.537Z,100.00
2022-09-06T21:01:57.103Z,100.00
2022-09-06T21:04:26.473Z,100.00
2022-09-06T21:06:54.782Z,100.00
2022-09-06T21:09:22.370Z,100.00
2022-09-06T21:11:52.598Z,100.00
2022-09-06T21:14:20.266Z,100.00
2022-09-06T21:16:47.932Z,100.00
2022-09-06T21:19:16.200Z,100.00
2022-09-06T21:21:44.557Z,100.00
2022-09-06T21:24:12.186Z,100.00
2022-09-06T21:26:40.849Z,100.00
2022-09-06T21:29:09.925Z,100.00
2022-09-06T21:31:38.333Z,100.00
2022-09-06T21:34:07.169Z,100.00
2022-09-06T21:36:39.045Z,100.00
2022-09-06T21:39:09.527Z,100.00
2022-09-06T21:41:38.544Z,100.00
2022-09-06T21:44:08.187Z,100.00
2022-09-06T21:46:38.758Z,100.00
2022-09-06T21:49:08.839Z,100.00
2022-09-06T21:51:37.119Z,100.00
2022-09-06T21:54:05.819Z,100.00
2022-09-06T21:56:35.790Z,100.00
2022-09-06T21:59:03.725Z,100.00
2022-09-06T22:01:33.985Z,100.00
2022-09-06T22:04:03.965Z,100.00
2022-09-06T22:06:33.330Z,100.00
2022-09-06T22:09:02.929Z,100.00
2022-09-06T22:11:32.955Z,100.00
2022-09-06T22:14:01.536Z,100.00
2022-09-06T22:16:31.087Z,100.00
2022-09-06T22:18:58.990Z,100.00
2022-09-06T22:21:28.020Z,100.00
2022-09-06T22:23:57.696Z,100.00
2022-09-06T22:26:26.430Z,100.00
2022-09-06T22:28:55.214Z,100.00
2022-09-06T22:31:23.581Z,100.00
2022-09-06T22:33:51.160Z,100.00
2022-09-06T22:36:18.790Z,100.00
2022-09-06T22:38:47.727Z,100.00
2022-09-06T22:41:15.203Z,100.00
2022-09-06T22:43:42.724Z,100.00
2022-09-06T22:46:11.124Z,100.00
2022-09-06T22:48:38.720Z,100.00
2022-09-06T22:51:07.093Z,100.00
2022-09-06T22:53:36.227Z,100.00
2022-09-06T22:56:05.210Z,100.00
2022-09-06T22:58:33.675Z,100.00
2022-09-06T23:01:06.344Z,100.00
2022-09-06T23:03:35.165Z,100.00
2022-09-06T23:06:02.864Z,100.00
2022-09-06T23:08:30.330Z,100.00
2022-09-06T23:10:57.745Z,100.00
2022-09-06T23:13:26.574Z,100.00
2022-09-06T23:15:54.090Z,100.00
2022-09-06T23:18:21.691Z,100.00
2022-09-06T23:20:49.082Z,100.00
2022-09-06T23:23:16.441Z,100.00
2022-09-06T23:25:44.050Z,100.00
2022-09-06T23:28:11.483Z,100.00
2022-09-06T23:30:40.330Z,100.00
2022-09-06T23:33:07.692Z,100.00
2022-09-06T23:35:35.120Z,100.00
2022-09-06T23:38:02.505Z,100.00
2022-09-06T23:40:29.909Z,100.00
2022-09-06T23:42:57.279Z,100.00
2022-09-06T23:45:24.669Z,100.00
2022-09-06T23:47:53.389Z,100.00
2022-09-06T23:50:20.900Z,100.00
2022-09-06T23:52:48.567Z,100.00
2022-09-06T23:55:16.104Z,100.00
2022-09-06T23:57:43.497Z,100.00
